createdAt,value
2023-04-03T00:00:43.747Z,9.00
2023-04-03T00:03:13.231Z,8.90
2023-04-03T00:05:41.542Z,8.80
2023-04-03T00:08:10.623Z,8.60
2023-04-03T00:10:39.137Z,8.60
2023-04-03T00:13:07.586Z,8.50
2023-04-03T00:15:35.736Z,8.40
2023-04-03T00:18:04.041Z,8.70
2023-04-03T00:20:33.595Z,8.50
2023-04-03T00:23:01.999Z,8.30
2023-04-03T00:25:30.105Z,8.50
2023-04-03T00:27:58.253Z,8.40
2023-04-03T00:30:26.337Z,7.90
2023-04-03T00:32:54.753Z,8.30
2023-04-03T00:35:23.276Z,8.30
2023-04-03T00:37:53.487Z,8.50
2023-04-03T00:40:21.844Z,8.20
2023-04-03T00:42:50.761Z,8.10
2023-04-03T00:45:29.132Z,8.20
2023-04-03T00:47:57.287Z,8.10
2023-04-03T00:50:25.560Z,8.00
2023-04-03T00:52:55.360Z,7.80
2023-04-03T00:55:23.709Z,8.10
2023-04-03T00:57:52.064Z,8.20
2023-04-03T01:00:21.455Z,8.00
2023-04-03T01:02:49.597Z,7.70
2023-04-03T01:05:17.957Z,7.70
2023-04-03T01:07:46.105Z,7.80
2023-04-03T01:10:16.915Z,7.70
2023-04-03T01:12:46.398Z,7.50
2023-04-03T01:15:16.295Z,7.30
2023-04-03T01:17:46.034Z,7.40
2023-04-03T01:20:53.417Z,7.60
2023-04-03T01:23:38.342Z,7.50
2023-04-03T01:26:07.763Z,7.20
2023-04-03T01:28:36.960Z,7.40
2023-04-03T01:31:08.687Z,7.10
2023-04-03T01:33:39.144Z,7.00
2023-04-03T01:36:08.178Z,7.20
2023-04-03T01:38:36.259Z,7.30
2023-04-03T01:41:04.321Z,7.00
2023-04-03T01:43:32.361Z,7.50
2023-04-03T01:46:00.618Z,7.70
2023-04-03T01:48:28.709Z,7.70
2023-04-03T01:50:58.163Z,7.40
2023-04-03T01:53:26.319Z,7.50
2023-04-03T01:55:54.562Z,7.30
2023-04-03T01:58:22.702Z,7.20
2023-04-03T02:00:50.820Z,7.60
2023-04-03T02:03:18.855Z,7.40
2023-04-03T02:05:46.920Z,7.50
2023-04-03T02:08:18.964Z,7.50
2023-04-03T02:10:48.582Z,7.30
2023-04-03T02:13:16.662Z,7.40
2023-04-03T02:15:44.696Z,7.20
2023-04-03T02:18:12.967Z,7.20
2023-04-03T02:20:41.069Z,7.30
2023-04-03T02:23:09.102Z,7.40
2023-04-03T02:25:39.009Z,7.30
2023-04-03T02:28:07.475Z,7.50
2023-04-03T02:30:35.671Z,7.40
2023-04-03T02:33:03.960Z,7.30
2023-04-03T02:35:32.084Z,7.60
2023-04-03T02:38:00.154Z,7.70
2023-04-03T02:40:28.244Z,7.60
2023-04-03T02:42:58.017Z,7.30
2023-04-03T02:45:26.207Z,7.20
2023-04-03T02:47:54.306Z,7.50
2023-04-03T02:50:22.418Z,7.60
2023-04-03T02:52:50.482Z,7.60
2023-04-03T02:55:18.854Z,7.40
2023-04-03T02:57:46.952Z,7.60
2023-04-03T03:00:16.906Z,7.60
2023-04-03T03:02:45.031Z,7.10
2023-04-03T03:05:13.121Z,7.50
2023-04-03T03:07:41.161Z,7.60
2023-04-03T03:10:10.000Z,7.50
2023-04-03T03:12:38.075Z,7.60
2023-04-03T03:15:08.324Z,7.40
2023-04-03T03:17:38.041Z,7.40
2023-04-03T03:20:06.796Z,7.50
2023-04-03T03:22:35.314Z,7.90
2023-04-03T03:25:03.738Z,8.00
2023-04-03T03:27:31.884Z,7.90
2023-04-03T03:29:59.990Z,8.20
2023-04-03T03:32:28.101Z,8.00
2023-04-03T03:34:57.589Z,8.20
2023-04-03T03:37:25.710Z,8.20
2023-04-03T03:39:53.837Z,7.70
2023-04-03T03:42:22.047Z,7.70
2023-04-03T03:44:50.074Z,7.60
2023-04-03T03:47:18.134Z,7.70
2023-04-03T03:49:46.255Z,7.80
2023-04-03T03:52:15.785Z,7.80
2023-04-03T03:54:43.816Z,8.20
2023-04-03T03:57:11.940Z,8.20
2023-04-03T03:59:41.939Z,8.10
2023-04-03T04:02:10.061Z,7.60
2023-04-03T04:04:39.297Z,7.70
2023-04-03T04:07:07.395Z,7.20
2023-04-03T04:09:36.893Z,7.40
2023-04-03T04:12:05.110Z,7.40
2023-04-03T04:14:33.125Z,7.30
2023-04-03T04:17:03.359Z,7.20
2023-04-03T04:19:31.547Z,7.50
2023-04-03T04:21:59.560Z,7.40
2023-04-03T04:24:27.616Z,7.50
2023-04-03T04:26:57.013Z,7.20
2023-04-03T04:29:25.433Z,7.30
2023-04-03T04:31:53.521Z,7.10
2023-04-03T04:34:21.551Z,7.00
2023-04-03T04:36:49.866Z,7.20
2023-04-03T04:39:18.330Z,7.30
2023-04-03T04:41:46.333Z,7.30
2023-04-03T04:44:15.780Z,7.20
2023-04-03T04:46:43.780Z,7.20
2023-04-03T04:49:11.814Z,7.20
2023-04-03T04:51:50.873Z,7.10
2023-04-03T04:54:20.878Z,7.00
2023-04-03T04:56:49.099Z,7.00
2023-04-03T04:59:20.675Z,7.00
2023-04-03T05:01:50.255Z,6.60
2023-04-03T05:04:18.643Z,6.20
2023-04-03T05:06:46.986Z,5.80
2023-04-03T05:09:15.207Z,5.90
2023-04-03T05:11:44.069Z,6.30
2023-04-03T05:14:12.331Z,6.70
2023-04-03T05:16:41.802Z,6.20
2023-04-03T05:19:10.008Z,5.80
2023-04-03T05:21:38.585Z,5.60
2023-04-03T05:24:10.106Z,5.60
2023-04-03T05:26:38.295Z,6.00
2023-04-03T05:29:06.559Z,6.30
2023-04-03T05:31:37.701Z,5.70
2023-04-03T05:34:10.850Z,6.20
2023-04-03T05:36:44.472Z,5.80
2023-04-03T05:42:08.921Z,5.20
2023-04-03T05:45:07.921Z,5.10
2023-04-03T05:47:52.720Z,5.20
2023-04-03T05:51:01.506Z,5.70
2023-04-03T05:53:39.778Z,5.70
2023-04-03T05:56:26.813Z,6.10
2023-04-03T05:59:06.152Z,5.90
2023-04-03T06:01:58.897Z,6.10
2023-04-03T06:04:30.000Z,6.20
2023-04-03T06:07:11.780Z,6.00
2023-04-03T06:09:42.470Z,6.00
2023-04-03T06:12:15.496Z,6.20
2023-04-03T06:14:44.081Z,6.10
2023-04-03T06:17:21.968Z,5.80
2023-04-03T06:19:50.088Z,6.50
2023-04-03T06:22:21.023Z,6.30
2023-04-03T06:24:50.266Z,6.20
2023-04-03T06:27:18.692Z,7.00
2023-04-03T06:29:47.466Z,7.50
2023-04-03T06:32:16.389Z,8.00
2023-04-03T06:34:44.627Z,7.80
2023-04-03T06:37:14.792Z,8.00
2023-04-03T06:39:45.271Z,8.70
2023-04-03T06:42:14.141Z,9.20
2023-04-03T06:44:42.755Z,9.30
2023-04-03T06:47:12.241Z,9.30
2023-04-03T06:49:40.348Z,9.30
2023-04-03T06:52:08.608Z,9.70
2023-04-03T06:54:36.976Z,10.20
2023-04-03T06:57:06.803Z,9.70
2023-04-03T06:59:35.051Z,10.50
2023-04-03T07:02:06.268Z,10.90
2023-04-03T07:04:34.914Z,9.60
2023-04-03T07:07:03.397Z,10.50
2023-04-03T07:09:31.568Z,10.70
2023-04-03T07:11:59.628Z,11.20
2023-04-03T07:14:31.771Z,11.40
2023-04-03T07:17:02.347Z,11.00
2023-04-03T07:19:30.603Z,10.20
2023-04-03T07:21:58.906Z,10.70
2023-04-03T07:24:27.294Z,11.40
2023-04-03T07:26:55.563Z,11.40
2023-04-03T07:29:24.076Z,11.80
2023-04-03T07:31:54.815Z,11.60
2023-04-03T07:34:23.509Z,10.30
2023-04-03T07:36:53.954Z,10.70
2023-04-03T07:39:22.328Z,10.20
2023-04-03T07:41:50.831Z,10.80
2023-04-03T07:44:19.343Z,11.30
2023-04-03T07:46:48.054Z,11.40
2023-04-03T07:49:19.144Z,10.60
2023-04-03T07:51:47.835Z,11.00
2023-04-03T07:54:16.888Z,11.20
2023-04-03T07:56:45.383Z,11.20
2023-04-03T07:59:13.676Z,11.50
2023-04-03T08:01:41.761Z,11.70
2023-04-03T08:04:10.149Z,11.20
2023-04-03T08:06:46.642Z,11.80
2023-04-03T08:09:16.775Z,11.60
2023-04-03T08:11:45.521Z,12.40
2023-04-03T08:14:18.010Z,11.90
2023-04-03T08:16:46.666Z,13.00
2023-04-03T08:19:25.645Z,13.10
2023-04-03T08:21:57.793Z,13.50
2023-04-03T08:24:26.428Z,13.00
2023-04-03T08:26:54.724Z,13.60
2023-04-03T08:29:23.338Z,13.10
2023-04-03T08:31:52.060Z,13.30
2023-04-03T08:34:20.284Z,12.90
2023-04-03T08:36:48.750Z,12.80
2023-04-03T08:39:18.544Z,12.90
2023-04-03T08:41:48.802Z,13.30
2023-04-03T08:44:20.118Z,13.80
2023-04-03T08:47:07.783Z,13.10
2023-04-03T08:49:37.915Z,13.30
2023-04-03T08:52:08.266Z,12.70
2023-04-03T08:54:39.630Z,12.50
2023-04-03T08:57:08.335Z,13.00
2023-04-03T08:59:38.750Z,13.50
2023-04-03T09:02:15.819Z,12.50
2023-04-03T09:04:44.156Z,13.30
2023-04-03T09:07:16.005Z,13.00
2023-04-03T09:09:45.754Z,12.90
2023-04-03T09:12:18.660Z,14.20
2023-04-03T09:14:49.843Z,14.60
2023-04-03T09:17:21.971Z,14.50
2023-04-03T09:19:53.565Z,14.40
2023-04-03T09:22:23.664Z,14.00
2023-04-03T09:24:58.217Z,14.00
2023-04-03T09:27:26.808Z,14.30
2023-04-03T09:29:55.508Z,13.90
2023-04-03T09:32:27.653Z,13.40
2023-04-03T09:34:58.162Z,14.30
2023-04-03T09:37:39.965Z,14.90
2023-04-03T09:40:30.412Z,15.40
2023-04-03T09:43:01.278Z,14.70
2023-04-03T09:45:31.427Z,14.30
2023-04-03T09:48:10.405Z,14.10
2023-04-03T09:50:43.690Z,13.80
2023-04-03T09:53:37.945Z,14.20
2023-04-03T09:56:21.939Z,14.30
2023-04-03T09:58:51.356Z,14.30
2023-04-03T10:01:28.843Z,14.00
2023-04-03T10:04:06.337Z,14.00
2023-04-03T10:06:36.467Z,14.70
2023-04-03T10:09:06.498Z,15.10
2023-04-03T10:11:35.934Z,14.20
2023-04-03T10:14:07.761Z,15.00
2023-04-03T10:16:40.383Z,13.80
2023-04-03T10:19:33.855Z,13.40
2023-04-03T10:22:02.676Z,13.70
2023-04-03T10:24:33.262Z,14.10
2023-04-03T10:27:04.972Z,13.20
2023-04-03T10:29:42.247Z,13.30
2023-04-03T10:32:25.454Z,14.20
2023-04-03T10:35:04.229Z,13.40
2023-04-03T10:37:38.453Z,13.20
2023-04-03T10:40:13.009Z,12.90
2023-04-03T10:42:45.910Z,13.50
2023-04-03T10:45:21.620Z,13.10
2023-04-03T10:47:55.015Z,13.30
2023-04-03T10:50:29.216Z,13.00
2023-04-03T10:52:59.893Z,12.70
2023-04-03T10:55:34.314Z,12.30
2023-04-03T10:58:04.038Z,12.70
2023-04-03T11:00:36.576Z,12.00
2023-04-03T11:03:07.055Z,12.60
2023-04-03T11:05:39.021Z,11.90
2023-04-03T11:08:08.822Z,12.10
2023-04-03T11:10:39.894Z,11.80
2023-04-03T11:13:13.377Z,12.00
2023-04-03T11:15:42.245Z,12.70
2023-04-03T11:18:12.094Z,12.80
2023-04-03T11:20:40.971Z,13.10
2023-04-03T11:23:24.684Z,13.00
2023-04-03T11:25:55.644Z,12.10
2023-04-03T11:28:25.193Z,12.60
2023-04-03T11:30:58.199Z,12.90
2023-04-03T11:33:30.872Z,12.40
2023-04-03T11:36:01.192Z,12.70
2023-04-03T11:38:32.701Z,13.00
2023-04-03T11:41:01.238Z,12.30
2023-04-03T11:43:31.981Z,12.00
2023-04-03T11:46:02.033Z,12.00
2023-04-03T11:48:49.491Z,12.30
2023-04-03T11:51:42.427Z,12.20
2023-04-03T11:54:46.332Z,11.50
2023-04-03T11:57:49.614Z,12.20
2023-04-03T12:00:54.270Z,12.10
2023-04-03T12:04:09.930Z,11.80
2023-04-03T12:07:00.946Z,12.00
2023-04-03T12:09:37.219Z,12.20
2023-04-03T12:12:36.267Z,12.20
2023-04-03T12:15:25.300Z,11.80
2023-04-03T12:17:54.924Z,11.80
2023-04-03T12:20:59.245Z,12.10
2023-04-03T12:23:30.706Z,12.20
2023-04-03T12:26:05.078Z,11.50
2023-04-03T12:28:41.062Z,11.50
2023-04-03T12:31:10.252Z,11.80
2023-04-03T12:33:48.532Z,11.80
2023-04-03T12:36:20.149Z,12.10
2023-04-03T12:39:08.501Z,11.80
2023-04-03T12:41:40.788Z,12.00
2023-04-03T12:44:48.662Z,12.10
2023-04-03T12:47:24.889Z,11.80
2023-04-03T12:49:54.489Z,11.60
2023-04-03T12:52:28.496Z,11.80
2023-04-03T12:54:57.372Z,12.20
2023-04-03T12:57:27.514Z,11.70
2023-04-03T12:59:55.908Z,11.60
2023-04-03T13:02:26.073Z,11.30
2023-04-03T13:04:58.872Z,12.10
2023-04-03T13:07:29.717Z,12.00
2023-04-03T13:10:00.099Z,10.80
2023-04-03T13:12:29.746Z,11.40
2023-04-03T13:15:00.061Z,11.50
2023-04-03T13:17:28.723Z,11.70
2023-04-03T13:20:01.302Z,11.60
2023-04-03T13:22:30.885Z,12.00
2023-04-03T13:25:02.720Z,11.90
2023-04-03T13:27:32.011Z,12.10
2023-04-03T13:30:01.261Z,11.40
2023-04-03T13:32:30.245Z,12.10
2023-04-03T13:35:08.234Z,11.80
2023-04-03T13:37:56.481Z,11.70
2023-04-03T13:40:26.586Z,11.70
2023-04-03T13:43:06.439Z,11.90
2023-04-03T13:45:34.875Z,12.30
2023-04-03T13:48:23.369Z,12.70
2023-04-03T13:50:55.545Z,12.40
2023-04-03T13:53:23.692Z,12.80
2023-04-03T13:56:01.029Z,12.10
2023-04-03T13:58:29.582Z,11.30
2023-04-03T14:00:58.623Z,11.90
2023-04-03T14:03:30.785Z,11.70
2023-04-03T14:06:00.908Z,11.50
2023-04-03T14:08:41.861Z,12.20
2023-04-03T14:11:14.096Z,12.70
2023-04-03T14:13:42.224Z,12.30
2023-04-03T14:16:15.841Z,11.60
2023-04-03T14:18:44.687Z,12.60
2023-04-03T14:21:15.087Z,13.30
2023-04-03T14:23:43.404Z,12.70
2023-04-03T14:26:13.934Z,12.60
2023-04-03T14:28:44.017Z,12.70
2023-04-03T14:31:13.515Z,12.70
2023-04-03T14:33:41.747Z,13.30
2023-04-03T14:36:15.759Z,13.20
2023-04-03T14:38:44.328Z,12.70
2023-04-03T14:41:16.555Z,12.40
2023-04-03T14:43:45.926Z,12.10
2023-04-03T14:46:15.665Z,12.50
2023-04-03T14:48:44.012Z,12.50
2023-04-03T14:51:14.251Z,12.50
2023-04-03T14:53:43.007Z,12.80
2023-04-03T14:56:14.569Z,12.80
2023-04-03T14:58:42.697Z,12.80
2023-04-03T15:01:12.871Z,12.90
2023-04-03T15:03:41.085Z,12.80
2023-04-03T15:06:11.088Z,12.70
2023-04-03T15:08:42.212Z,12.70
2023-04-03T15:11:10.826Z,12.50
2023-04-03T15:13:38.943Z,12.40
2023-04-03T15:16:07.053Z,12.70
2023-04-03T15:18:37.643Z,12.70
2023-04-03T15:21:05.719Z,12.80
2023-04-03T15:23:33.877Z,12.30
2023-04-03T15:26:03.381Z,12.70
2023-04-03T15:28:33.322Z,13.10
2023-04-03T15:31:01.474Z,12.90
2023-04-03T15:33:29.721Z,13.00
2023-04-03T15:36:06.741Z,12.40
2023-04-03T15:38:35.821Z,12.80
2023-04-03T15:41:05.342Z,12.40
2023-04-03T15:43:34.781Z,12.30
2023-04-03T15:46:03.107Z,12.20
2023-04-03T15:48:31.299Z,12.10
2023-04-03T15:50:59.494Z,13.00
2023-04-03T15:53:27.718Z,12.90
2023-04-03T15:55:55.791Z,11.70
2023-04-03T15:58:25.318Z,12.70
2023-04-03T16:00:53.848Z,12.50
2023-04-03T16:03:22.585Z,11.60
2023-04-03T16:05:50.778Z,12.00
2023-04-03T16:08:19.160Z,11.70
2023-04-03T16:10:48.107Z,12.30
2023-04-03T16:13:16.883Z,12.00
2023-04-03T16:15:46.436Z,12.80
2023-04-03T16:18:15.150Z,13.00
2023-04-03T16:20:44.733Z,12.40
2023-04-03T16:23:12.898Z,12.20
2023-04-03T16:25:41.412Z,12.50
2023-04-03T16:28:09.714Z,12.20
2023-04-03T16:30:37.829Z,12.20
2023-04-03T16:33:07.455Z,12.30
2023-04-03T16:35:35.568Z,12.00
2023-04-03T16:38:03.657Z,12.30
2023-04-03T16:40:31.803Z,11.80
2023-04-03T16:42:59.944Z,11.70
2023-04-03T16:45:28.084Z,12.10
2023-04-03T16:47:56.324Z,11.90
2023-04-03T16:50:25.800Z,11.60
2023-04-03T16:52:53.927Z,11.30
2023-04-03T16:55:22.054Z,11.50
2023-04-03T16:57:50.222Z,11.30
2023-04-03T17:00:18.782Z,11.60
2023-04-03T17:02:46.910Z,11.50
2023-04-03T17:05:15.081Z,11.20
2023-04-03T17:07:44.602Z,11.20
2023-04-03T17:10:12.883Z,11.10
2023-04-03T17:12:41.376Z,11.10
2023-04-03T17:15:10.174Z,11.30
2023-04-03T17:17:38.240Z,11.40
2023-04-03T17:20:07.489Z,11.20
2023-04-03T17:22:35.920Z,11.00
2023-04-03T17:25:05.885Z,11.10
2023-04-03T17:27:33.941Z,10.60
2023-04-03T17:30:01.988Z,10.60
2023-04-03T17:32:30.433Z,10.70
2023-04-03T17:34:58.586Z,10.70
2023-04-03T17:37:26.725Z,10.80
2023-04-03T17:39:54.958Z,10.80
2023-04-03T17:42:25.020Z,11.10
2023-04-03T17:44:53.097Z,10.80
2023-04-03T17:47:21.104Z,10.70
2023-04-03T17:49:49.239Z,10.90
2023-04-03T17:52:17.293Z,10.90
2023-04-03T17:54:45.605Z,10.60
2023-04-03T17:57:13.958Z,10.90
2023-04-03T17:59:43.455Z,10.90
2023-04-03T18:02:11.499Z,10.90
2023-04-03T18:04:39.622Z,10.50
2023-04-03T18:07:09.937Z,10.30
2023-04-03T18:09:38.286Z,10.30
2023-04-03T18:12:07.034Z,10.40
2023-04-03T18:14:35.348Z,10.30
2023-04-03T18:17:04.832Z,10.40
2023-04-03T18:19:32.949Z,10.20
2023-04-03T18:22:02.103Z,10.20
2023-04-03T18:24:30.220Z,9.90
2023-04-03T18:26:59.871Z,10.30
2023-04-03T18:29:28.112Z,10.10
2023-04-03T18:31:56.428Z,10.30
2023-04-03T18:34:25.945Z,10.00
2023-04-03T18:36:53.950Z,10.00
2023-04-03T18:39:23.996Z,9.90
2023-04-03T18:41:52.891Z,9.80
2023-04-03T18:44:22.354Z,9.70
2023-04-03T18:46:50.803Z,9.70
2023-04-03T18:49:18.868Z,9.30
2023-04-03T18:51:48.244Z,9.00
2023-04-03T18:54:16.449Z,9.20
2023-04-03T18:56:45.202Z,9.20
2023-04-03T18:59:13.324Z,8.80
2023-04-03T19:01:41.412Z,9.00
2023-04-03T19:04:09.685Z,9.00
2023-04-03T19:06:37.842Z,8.80
2023-04-03T19:09:07.761Z,8.70
2023-04-03T19:11:36.526Z,8.30
2023-04-03T19:14:16.058Z,8.30
2023-04-03T19:16:45.189Z,8.40
2023-04-03T19:19:13.451Z,8.30
2023-04-03T19:21:42.126Z,7.90
2023-04-03T19:24:12.282Z,8.20
2023-04-03T19:26:40.326Z,8.20
2023-04-03T19:29:08.649Z,8.00
2023-04-03T19:31:37.402Z,7.60
2023-04-03T19:34:06.595Z,7.70
2023-04-03T19:36:35.038Z,7.90
2023-04-03T19:39:03.170Z,8.00
2023-04-03T19:41:34.193Z,7.50
2023-04-03T19:44:02.481Z,7.70
2023-04-03T19:46:31.314Z,7.60
2023-04-03T19:48:59.445Z,7.60
2023-04-03T19:51:27.554Z,7.80
2023-04-03T19:53:55.652Z,7.60
2023-04-03T19:56:23.672Z,7.50
2023-04-03T19:58:55.183Z,7.30
2023-04-03T20:01:24.541Z,7.40
2023-04-03T20:03:53.236Z,7.70
2023-04-03T20:06:21.823Z,8.00
2023-04-03T20:08:50.211Z,7.90
2023-04-03T20:11:18.241Z,7.70
2023-04-03T20:13:46.424Z,7.80
2023-04-03T20:16:17.178Z,7.60
2023-04-03T20:18:47.308Z,7.70
2023-04-03T20:21:15.625Z,7.60
2023-04-03T20:23:43.706Z,7.80
2023-04-03T20:26:15.564Z,7.70
2023-04-03T20:28:44.986Z,7.70
2023-04-03T20:31:13.703Z,7.60
2023-04-03T20:33:43.734Z,7.80
2023-04-03T20:36:12.303Z,7.60
2023-04-03T20:38:40.595Z,7.80
2023-04-03T20:41:09.382Z,7.60
2023-04-03T20:43:38.440Z,7.70
2023-04-03T20:46:06.506Z,7.70
2023-04-03T20:48:34.563Z,7.60
2023-04-03T20:51:11.252Z,7.60
2023-04-03T20:53:39.420Z,7.70
2023-04-03T20:56:09.087Z,7.50
2023-04-03T20:58:38.429Z,7.30
2023-04-03T21:01:14.722Z,7.30
2023-04-03T21:03:43.271Z,7.10
2023-04-03T21:06:49.780Z,7.40
2023-04-03T21:10:05.436Z,7.30
2023-04-03T21:13:11.463Z,7.10
2023-04-03T21:15:48.871Z,7.30
2023-04-03T21:18:49.860Z,7.00
2023-04-03T21:21:24.416Z,6.90
2023-04-03T21:23:52.775Z,6.80
2023-04-03T21:26:21.653Z,7.00
2023-04-03T21:28:51.049Z,6.70
2023-04-03T21:31:19.106Z,6.40
2023-04-03T21:33:47.505Z,6.80
2023-04-03T21:36:16.018Z,6.80
2023-04-03T21:38:47.614Z,6.50
2023-04-03T21:41:15.685Z,6.70
2023-04-03T21:43:43.796Z,6.70
2023-04-03T21:46:12.124Z,6.70
2023-04-03T21:48:40.429Z,6.50
2023-04-03T21:51:08.805Z,6.20
2023-04-03T21:53:37.317Z,6.50
2023-04-03T21:56:07.551Z,6.50
2023-04-03T21:58:35.634Z,6.50
2023-04-03T22:01:11.094Z,6.20
2023-04-03T22:03:39.188Z,6.30
2023-04-03T22:06:07.459Z,6.40
2023-04-03T22:08:35.537Z,6.40
2023-04-03T22:11:04.013Z,6.70
2023-04-03T22:13:33.417Z,6.00
2023-04-03T22:16:01.928Z,6.10
2023-04-03T22:18:30.472Z,6.30
2023-04-03T22:20:58.490Z,6.60
2023-04-03T22:23:27.400Z,6.50
2023-04-03T22:25:59.560Z,6.20
2023-04-03T22:28:28.223Z,6.20
2023-04-03T22:30:57.731Z,6.00
2023-04-03T22:33:25.791Z,6.10
2023-04-03T22:35:53.827Z,6.20
2023-04-03T22:38:22.538Z,6.10
2023-04-03T22:40:57.568Z,6.30
2023-04-03T22:43:25.753Z,6.20
2023-04-03T22:45:53.808Z,6.20
2023-04-03T22:48:23.671Z,6.20
2023-04-03T22:50:52.255Z,6.10
2023-04-03T22:53:20.376Z,5.90
2023-04-03T22:55:55.718Z,5.70
2023-04-03T22:58:26.502Z,6.00
2023-04-03T23:00:55.605Z,6.00
2023-04-03T23:03:26.027Z,6.20
2023-04-03T23:05:56.092Z,5.80
2023-04-03T23:08:24.293Z,6.00
2023-04-03T23:10:55.368Z,6.10
2023-04-03T23:13:23.455Z,5.80
2023-04-03T23:15:54.589Z,5.70
2023-04-03T23:18:24.209Z,6.00
2023-04-03T23:20:54.514Z,5.80
2023-04-03T23:23:23.772Z,5.70
2023-04-03T23:25:55.034Z,5.70
2023-04-03T23:28:23.083Z,5.80
2023-04-03T23:30:51.752Z,5.90
2023-04-03T23:33:19.898Z,5.60
2023-04-03T23:35:49.382Z,5.70
2023-04-03T23:38:17.771Z,5.60
2023-04-03T23:40:46.354Z,6.00
2023-04-03T23:43:14.381Z,5.70
2023-04-03T23:45:42.608Z,5.50
2023-04-03T23:48:10.847Z,5.50
2023-04-03T23:50:39.066Z,5.50
2023-04-03T23:53:08.689Z,5.70
2023-04-03T23:55:36.998Z,5.60
2023-04-03T23:58:05.130Z,5.70
